Time;durP1;ratioP1;P1;durP2;ratioP2;P2;SDS_P1;SDS_P2;PMS_P1;PMS_P2;Temp;Humidity;BMP_temperature;BMP_pressure;BME280_temperature;BME280_humidity;BME280_pressure;Samples;Min_cycle;Max_cycle;Signal;HPM_P1;HPM_P2
2021/09/17 00:01:23;;;;;;;9.98;4.43;;;;;;;14.60;75.78;99065.84;2618470;54;20034;-63
2021/09/17 00:03:56;;;;;;;6.57;4.40;;;;;;;14.59;75.98;99066.06;2618021;54;20038;-63
2021/09/17 00:06:25;;;;;;;6.55;4.60;;;;;;;14.63;75.74;99059.28;2618174;47;20031;-64
2021/09/17 00:08:55;;;;;;;7.38;4.63;;;;;;;14.65;75.96;99065.19;2618473;54;20030;-63
2021/09/17 00:11:25;;;;;;;6.13;5.22;;;;;;;14.64;75.42;99063.56;2618383;54;20038;-63
2021/09/17 00:13:54;;;;;;;6.40;4.28;;;;;;;14.48;75.69;99064.03;2618075;54;20061;-63
2021/09/17 00:16:24;;;;;;;9.57;5.22;;;;;;;14.36;75.70;99064.66;2618400;54;20045;-64
2021/09/17 00:18:57;;;;;;;7.55;4.50;;;;;;;14.31;76.30;99075.13;2618427;54;20038;-63
2021/09/17 00:21:26;;;;;;;8.68;5.28;;;;;;;14.32;75.94;99075.94;2617966;54;20077;-63
2021/09/17 00:23:56;;;;;;;4.88;4.40;;;;;;;14.31;76.46;99077.78;2617798;54;20086;-63
2021/09/17 00:26:26;;;;;;;7.05;4.35;;;;;;;14.31;75.91;99077.78;2618311;54;20542;-63
2021/09/17 00:28:55;;;;;;;6.63;4.70;;;;;;;14.35;76.01;99073.69;2618416;54;20070;-64
2021/09/17 00:31:25;;;;;;;6.15;4.07;;;;;;;14.24;75.89;99076.19;2618295;54;20041;-63
2021/09/17 00:33:57;;;;;;;5.22;4.45;;;;;;;14.20;76.35;99073.13;2617917;54;20038;-64
2021/09/17 00:36:27;;;;;;;5.45;4.70;;;;;;;14.22;76.17;99070.25;2618243;54;20554;-63
2021/09/17 00:38:56;;;;;;;5.57;4.05;;;;;;;14.21;76.28;99063.31;2618370;46;20061;-63
2021/09/17 00:41:26;;;;;;;8.70;5.40;;;;;;;14.21;76.22;99068.66;2618781;39;20426;-63
2021/09/17 00:43:56;;;;;;;6.53;4.80;;;;;;;14.13;76.00;99072.34;2618013;54;20554;-63
2021/09/17 00:46:25;;;;;;;5.75;4.35;;;;;;;14.07;76.08;99071.31;2617579;47;20038;-63
2021/09/17 00:48:58;;;;;;;5.45;4.95;;;;;;;14.01;76.63;99066.03;2618578;39;20377;-63
2021/09/17 00:51:28;;;;;;;6.13;4.47;;;;;;;13.97;76.50;99057.66;2617800;48;20030;-63
2021/09/17 00:53:58;;;;;;;7.18;4.78;;;;;;;13.96;76.40;99058.69;2617545;47;20046;-63
2021/09/17 00:56:27;;;;;;;7.20;4.75;;;;;;;13.86;76.25;99059.09;2618583;54;20033;-63
2021/09/17 00:58:58;;;;;;;8.50;5.07;;;;;;;13.78;76.60;99059.31;2617983;54;20030;-63
2021/09/17 01:01:27;;;;;;;6.63;4.25;;;;;;;13.75;76.78;99056.25;2617692;54;20023;-63
2021/09/17 01:04:00;;;;;;;5.22;4.72;;;;;;;13.75;76.93;99056.25;2618035;54;20023;-62
2021/09/17 01:06:30;;;;;;;9.18;5.18;;;;;;;13.66;76.58;99055.66;2618494;54;20042;-63
2021/09/17 01:09:00;;;;;;;6.90;5.28;;;;;;;13.58;76.86;99059.34;2618188;54;20039;-64
2021/09/17 01:11:30;;;;;;;6.95;5.30;;;;;;;13.50;76.83;99061.38;2618398;54;20110;-63
2021/09/17 01:14:01;;;;;;;5.85;5.07;;;;;;;13.47;77.43;99052.00;2618160;54;20050;-62
2021/09/17 01:16:31;;;;;;;6.85;4.38;;;;;;;13.47;77.28;99046.69;2618284;54;20038;-63
2021/09/17 01:19:03;;;;;;;5.13;4.50;;;;;;;13.49;77.77;99047.28;2618127;54;20072;-64
2021/09/17 01:21:35;;;;;;;5.38;4.57;;;;;;;13.54;77.76;99041.34;2618062;54;20549;-63
2021/09/17 01:24:05;;;;;;;7.43;4.63;;;;;;;13.53;77.09;99037.91;2617718;54;20130;-63
2021/09/17 01:26:35;;;;;;;10.05;5.53;;;;;;;13.41;76.87;99044.84;2617910;54;20035;-63
2021/09/17 01:29:04;;;;;;;7.22;4.82;;;;;;;13.30;77.21;99037.50;2617936;54;20123;-64
2021/09/17 01:31:34;;;;;;;6.28;4.63;;;;;;;13.20;77.56;99035.22;2619379;39;20438;-63
2021/09/17 01:34:10;;;;;;;10.77;4.93;;;;;;;13.15;77.90;99045.63;2618776;31;20527;-63
2021/09/17 01:36:42;;;;;;;5.20;4.70;;;;;;;13.10;78.15;99040.94;2619185;39;20441;-63
2021/09/17 01:39:12;;;;;;;6.75;4.38;;;;;;;13.08;77.88;99040.31;2619629;39;20438;-63
2021/09/17 01:41:42;;;;;;;6.30;5.07;;;;;;;13.14;77.85;99036.88;2619219;54;20038;-65
2021/09/17 01:44:12;;;;;;;5.10;4.70;;;;;;;13.10;78.21;99030.31;2618572;54;20042;-64
2021/09/17 01:46:42;;;;;;;7.78;4.80;;;;;;;13.11;77.91;99036.44;2618823;54;20041;-63
2021/09/17 01:49:11;;;;;;;5.30;4.80;;;;;;;13.15;77.80;99035.03;2618882;54;20091;-63
2021/09/17 01:51:44;;;;;;;6.25;4.88;;;;;;;13.13;77.66;99031.72;2618733;54;20049;-63
2021/09/17 01:54:13;;;;;;;7.95;5.05;;;;;;;13.06;77.72;99021.13;2617793;54;20042;-64
2021/09/17 01:56:43;;;;;;;6.65;5.70;;;;;;;12.94;77.56;99020.09;2618514;54;20030;-63
2021/09/17 01:59:12;;;;;;;5.55;5.03;;;;;;;12.87;77.49;99024.56;2618294;54;20038;-68
2021/09/17 02:01:42;;;;;;;7.07;4.75;;;;;;;12.82;77.73;99024.38;2617647;47;20035;-63
2021/09/17 02:04:12;;;;;;;5.65;4.47;;;;;;;12.83;78.38;99024.16;2618377;54;20038;-63
2021/09/17 02:06:44;;;;;;;7.32;4.70;;;;;;;12.88;78.02;99019.06;2618738;54;20629;-64
2021/09/17 02:09:14;;;;;;;4.90;4.28;;;;;;;12.84;77.90;99017.81;2618792;54;20042;-63
2021/09/17 02:11:43;;;;;;;6.47;4.47;;;;;;;12.92;78.13;99016.00;2618680;54;20031;-64
2021/09/17 02:14:14;;;;;;;7.15;4.38;;;;;;;12.99;77.99;99016.84;2618449;54;20557;-64
2021/09/17 02:16:43;;;;;;;7.18;4.40;;;;;;;13.04;77.45;99015.19;2618343;47;20029;-64
2021/09/17 02:19:13;;;;;;;6.72;4.43;;;;;;;13.04;77.43;99014.38;2618970;39;20453;-64
2021/09/17 02:21:49;;;;;;;9.55;4.75;;;;;;;12.93;77.32;99013.13;2617897;54;20035;-65
2021/09/17 02:24:19;;;;;;;4.75;4.03;;;;;;;12.89;77.29;99014.56;2617682;47;20034;-64
2021/09/17 02:26:48;;;;;;;6.10;4.70;;;;;;;12.93;77.71;99007.00;2618818;39;20423;-64
2021/09/17 02:29:18;;;;;;;7.85;4.75;;;;;;;12.97;77.54;99008.25;2618528;54;20135;-65
2021/09/17 02:31:49;;;;;;;5.07;4.25;;;;;;;12.91;77.01;99009.06;2618524;54;20037;-64
2021/09/17 02:34:18;;;;;;;5.72;5.18;;;;;;;12.87;77.35;99011.31;2618245;54;20784;-64
2021/09/17 02:36:51;;;;;;;6.20;4.88;;;;;;;12.88;77.27;99016.41;2618518;54;20030;-64
2021/09/17 02:39:20;;;;;;;5.90;4.50;;;;;;;12.89;77.63;99014.56;2618992;39;20426;-64
2021/09/17 02:41:50;;;;;;;6.88;4.25;;;;;;;12.93;77.45;99018.44;2618746;54;20033;-63
2021/09/17 02:44:20;;;;;;;7.20;4.40;;;;;;;13.05;77.70;99016.00;2618109;54;20155;-64
2021/09/17 02:46:49;;;;;;;6.43;4.47;;;;;;;13.04;77.22;99014.38;2619095;39;20450;-64
2021/09/17 02:49:19;;;;;;;7.15;3.90;;;;;;;13.04;76.83;99009.88;2618376;47;20064;-62
2021/09/17 02:51:51;;;;;;;6.45;3.78;;;;;;;13.02;76.88;99011.09;2618719;54;20034;-63
2021/09/17 02:54:21;;;;;;;4.65;3.80;;;;;;;13.08;77.16;99010.31;2617968;54;20026;-63
2021/09/17 02:56:51;;;;;;;5.97;4.32;;;;;;;13.10;76.53;99008.25;2620936;54;20038;-64
2021/09/17 02:59:20;;;;;;;5.05;4.50;;;;;;;13.08;76.66;99011.13;2621685;54;20570;-64
2021/09/17 03:01:50;;;;;;;10.27;4.35;;;;;;;13.11;76.62;99007.25;2621258;54;20569;-64
2021/09/17 03:04:20;;;;;;;4.97;4.38;;;;;;;13.12;76.86;99009.69;2618314;54;20030;-64
2021/09/17 03:06:53;;;;;;;4.60;4.20;;;;;;;13.13;75.97;99005.19;2618609;54;20045;-64
2021/09/17 03:09:23;;;;;;;8.38;4.97;;;;;;;13.05;76.30;98998.25;2617870;47;20063;-64
2021/09/17 03:11:52;;;;;;;4.40;4.00;;;;;;;13.02;76.84;98997.84;2619741;39;20434;-64
2021/09/17 03:14:22;;;;;;;5.35;4.00;;;;;;;13.05;76.79;99003.56;2618404;54;20033;-64
2021/09/17 03:16:53;;;;;;;4.93;4.43;;;;;;;13.04;76.14;98993.97;2618599;54;20038;-64
2021/09/17 03:19:22;;;;;;;5.43;4.28;;;;;;;13.01;76.77;98994.38;2617977;47;20031;-64
2021/09/17 03:21:59;;;;;;;7.28;4.60;;;;;;;13.07;76.73;98990.91;2619099;39;20410;-64
2021/09/17 03:24:28;;;;;;;5.32;4.18;;;;;;;13.07;76.52;98990.09;2617552;47;20038;-64
2021/09/17 03:26:58;;;;;;;5.20;4.50;;;;;;;13.07;76.32;98996.22;2617633;46;20069;-64
2021/09/17 03:29:28;;;;;;;6.18;4.05;;;;;;;13.10;76.55;98989.66;2618348;31;20498;-64
2021/09/17 03:31:57;;;;;;;4.40;4.00;;;;;;;13.08;76.24;98989.88;2618318;54;20041;-64
2021/09/17 03:34:27;;;;;;;6.20;4.32;;;;;;;13.13;76.45;98986.63;2618264;54;20034;-64
2021/09/17 03:36:59;;;;;;;4.72;4.28;;;;;;;13.04;75.74;98991.31;2618220;47;20061;-63
2021/09/17 03:39:29;;;;;;;7.93;4.45;;;;;;;12.94;75.77;98984.75;2619085;54;20035;-64
2021/09/17 03:41:59;;;;;;;8.70;4.53;;;;;;;12.83;76.13;98981.72;2618632;54;20041;-63
2021/09/17 03:44:28;;;;;;;6.25;4.90;;;;;;;12.80;76.74;98982.09;2618935;39;20441;-63
2021/09/17 03:46:58;;;;;;;5.60;4.35;;;;;;;12.80;76.84;98975.97;2618499;54;20077;-63
2021/09/17 03:49:28;;;;;;;7.55;6.78;;;;;;;12.77;76.61;98973.72;2618186;46;20035;-63
2021/09/17 03:52:00;;;;;;;33.05;22.27;;;;;;;12.80;76.69;98975.97;2617816;47;20030;-63
2021/09/17 03:54:30;;;;;;;6.13;4.82;;;;;;;12.86;76.47;98976.00;2618118;39;20085;-63
2021/09/17 03:57:01;;;;;;;6.10;4.10;;;;;;;12.86;76.62;98980.50;2618311;54;20038;-64
2021/09/17 03:59:31;;;;;;;7.15;4.75;;;;;;;12.87;76.49;98979.47;2618564;54;20034;-64
2021/09/17 04:02:01;;;;;;;5.75;4.40;;;;;;;12.82;77.03;98974.78;2618530;54;20538;-64
2021/09/17 04:04:31;;;;;;;8.02;4.20;;;;;;;12.82;76.89;98971.31;2617929;54;20034;-64
2021/09/17 04:07:03;;;;;;;7.97;5.05;;;;;;;12.80;76.75;98968.03;2618857;47;20034;-66
2021/09/17 04:09:32;;;;;;;5.55;4.78;;;;;;;12.75;77.09;98965.16;2620339;54;20034;-64
2021/09/17 04:12:02;;;;;;;6.75;4.97;;;;;;;12.80;76.98;98968.84;2622254;54;20039;-64
2021/09/17 04:14:32;;;;;;;6.00;4.63;;;;;;;12.74;77.10;98964.38;2621884;54;20034;-64
2021/09/17 04:17:02;;;;;;;6.22;4.80;;;;;;;12.72;77.03;98963.72;2622220;54;20549;-64
2021/09/17 04:19:31;;;;;;;6.93;6.22;;;;;;;12.77;77.47;98965.78;2622526;54;20038;-64
2021/09/17 04:22:04;;;;;;;6.82;4.53;;;;;;;12.72;76.94;98966.38;2622498;54;20026;-66
2021/09/17 04:24:33;;;;;;;4.80;4.38;;;;;;;12.77;77.23;98965.78;2621519;54;20026;-64
2021/09/17 04:27:03;;;;;;;7.47;4.82;;;;;;;12.88;77.46;98963.34;2621557;54;20034;-63
2021/09/17 04:29:33;;;;;;;5.47;4.60;;;;;;;12.92;76.77;98970.91;2622150;54;20042;-64
2021/09/17 04:32:02;;;;;;;8.43;5.22;;;;;;;12.86;77.10;98969.88;2622561;54;20031;-64
2021/09/17 04:34:32;;;;;;;8.57;5.05;;;;;;;12.88;77.23;98971.28;2622058;54;20026;-64
2021/09/17 04:37:05;;;;;;;9.50;5.15;;;;;;;12.96;77.38;98978.25;2621243;54;20031;-65
2021/09/17 04:39:34;;;;;;;6.25;5.32;;;;;;;12.97;77.25;98974.56;2620740;54;20038;-65
2021/09/17 04:42:04;;;;;;;7.57;4.80;;;;;;;12.95;77.07;98970.50;2620544;54;20027;-64
2021/09/17 04:44:34;;;;;;;6.70;4.72;;;;;;;12.97;77.35;98976.41;2618968;47;20022;-64
2021/09/17 04:47:04;;;;;;;6.55;5.22;;;;;;;13.00;76.84;98978.66;2620667;54;20026;-63
2021/09/17 04:49:33;;;;;;;6.68;5.10;;;;;;;12.94;76.75;98977.66;2619153;54;20542;-64
2021/09/17 04:52:06;;;;;;;5.30;4.80;;;;;;;12.88;76.89;98979.25;2620281;54;20540;-64
2021/09/17 04:54:38;;;;;;;5.57;5.07;;;;;;;12.85;77.54;98981.50;2620445;54;20030;-63
2021/09/17 04:57:07;;;;;;;6.25;4.57;;;;;;;12.86;77.36;98983.16;2620818;47;20074;-64
2021/09/17 04:59:40;;;;;;;9.25;5.07;;;;;;;12.85;77.16;98981.50;2621027;54;20074;-64
2021/09/17 05:02:10;;;;;;;10.18;5.18;;;;;;;12.79;77.41;98980.47;2620352;47;20593;-64
2021/09/17 05:04:39;;;;;;;7.57;5.43;;;;;;;12.82;77.57;98976.63;2619436;54;20103;-64
2021/09/17 05:07:12;;;;;;;5.40;4.90;;;;;;;12.88;77.77;98981.09;2619817;54;20557;-66
2021/09/17 05:09:42;;;;;;;9.07;5.03;;;;;;;12.93;77.34;98977.84;2619816;54;20062;-65
2021/09/17 05:12:12;;;;;;;5.00;4.38;;;;;;;12.97;77.74;98976.41;2619516;54;20026;-65
2021/09/17 05:14:41;;;;;;;5.90;4.90;;;;;;;13.04;77.62;98985.19;2618704;54;20055;-64
2021/09/17 05:17:11;;;;;;;7.25;4.82;;;;;;;13.07;77.09;98982.94;2618900;54;20030;-65
2021/09/17 05:19:40;;;;;;;6.22;4.57;;;;;;;13.08;77.31;98981.09;2619276;54;20034;-66
2021/09/17 05:22:13;;;;;;;7.22;5.10;;;;;;;13.11;76.97;98984.19;2621690;47;20030;-65
2021/09/17 05:24:42;;;;;;;6.60;5.40;;;;;;;13.08;76.91;98981.09;2619470;54;20171;-63
2021/09/17 05:27:14;;;;;;;7.95;5.60;;;;;;;13.06;77.15;98985.78;2619043;54;20534;-65
2021/09/17 05:29:44;;;;;;;14.32;12.80;;;;;;;13.07;77.44;98976.84;2618610;46;20962;-68
2021/09/17 05:32:14;;;;;;;10.25;6.85;;;;;;;13.07;77.66;98979.47;2623454;54;20420;-68
2021/09/17 05:34:44;;;;;;;8.38;7.57;;;;;;;13.12;77.51;98983.16;2623597;54;20030;-67
2021/09/17 05:37:16;;;;;;;5.97;5.38;;;;;;;13.10;77.11;98984.34;2623488;54;20045;-67
2021/09/17 05:39:46;;;;;;;5.90;5.20;;;;;;;13.04;77.67;98982.53;2623431;54;20030;-67
2021/09/17 05:42:16;;;;;;;7.25;5.82;;;;;;;13.08;77.91;98983.75;2626259;39;20697;-68
2021/09/17 05:44:45;;;;;;;6.95;5.35;;;;;;;13.19;77.74;98985.81;2624619;54;20039;-68
2021/09/17 05:47:15;;;;;;;6.53;5.25;;;;;;;13.17;77.77;98992.34;2624567;39;20131;-67
2021/09/17 05:49:45;;;;;;;6.78;5.38;;;;;;;13.22;77.88;98997.84;2622421;39;20478;-68
2021/09/17 05:52:17;;;;;;;6.47;4.95;;;;;;;13.31;77.57;98989.50;2623060;54;20086;-67
2021/09/17 05:54:47;;;;;;;7.57;5.43;;;;;;;13.41;77.85;98993.56;2624421;39;20418;-67
2021/09/17 05:57:16;;;;;;;6.70;5.28;;;;;;;13.50;77.16;98993.16;2624459;54;20105;-67
2021/09/17 05:59:46;;;;;;;5.53;5.00;;;;;;;13.51;76.94;98983.34;2625659;39;20442;-68
2021/09/17 06:02:16;;;;;;;8.35;5.65;;;;;;;13.49;76.75;98985.41;2624334;54;20133;-68
2021/09/17 06:04:46;;;;;;;8.00;5.63;;;;;;;13.47;77.14;98992.75;2624486;54;20053;-69
2021/09/17 06:07:18;;;;;;;6.40;5.80;;;;;;;13.52;77.16;98993.78;2624956;54;20027;-68
2021/09/17 06:09:49;;;;;;;6.07;5.47;;;;;;;13.61;76.97;98995.19;2624912;54;20033;-68
2021/09/17 06:12:18;;;;;;;6.97;5.50;;;;;;;13.65;76.29;98994.78;2625178;54;20026;-68
2021/09/17 06:14:48;;;;;;;8.77;5.30;;;;;;;13.68;77.03;98997.03;2623676;54;20043;-68
2021/09/17 06:17:18;;;;;;;9.75;5.18;;;;;;;13.80;76.40;98990.84;2623611;54;20562;-68
2021/09/17 06:19:47;;;;;;;5.63;5.00;;;;;;;13.94;76.19;98988.16;2624392;47;20033;-68
2021/09/17 06:22:20;;;;;;;6.55;4.85;;;;;;;14.04;76.11;98989.34;2622981;54;20030;-68
2021/09/17 06:24:49;;;;;;;7.38;5.07;;;;;;;14.13;76.15;98992.59;2624274;47;20533;-68
2021/09/17 06:27:19;;;;;;;7.20;6.32;;;;;;;14.05;75.38;98987.50;2623253;54;20526;-68
2021/09/17 06:29:49;;;;;;;6.97;5.32;;;;;;;14.01;75.33;98983.63;2621285;47;20546;-69
2021/09/17 06:32:18;;;;;;;6.72;4.88;;;;;;;14.06;75.82;98983.81;2621902;47;20058;-69
2021/09/17 06:34:48;;;;;;;7.63;5.53;;;;;;;14.13;75.97;98985.41;2621814;54;20042;-69
2021/09/17 06:37:20;;;;;;;7.65;5.22;;;;;;;14.21;75.63;98981.72;2621667;47;20036;-69
2021/09/17 06:39:50;;;;;;;6.32;5.03;;;;;;;14.24;75.47;98980.47;2623281;54;20046;-68
2021/09/17 06:42:19;;;;;;;7.30;5.22;;;;;;;14.33;75.29;98979.22;2623210;54;20581;-67
2021/09/17 06:44:49;;;;;;;6.20;5.60;;;;;;;14.44;75.00;98978.50;2622726;54;20039;-67
2021/09/17 06:47:19;;;;;;;7.47;5.45;;;;;;;14.48;74.30;98981.56;2621796;54;20040;-68
2021/09/17 06:49:48;;;;;;;8.43;6.80;;;;;;;14.42;74.41;98977.13;2622899;54;20037;-68
2021/09/17 06:52:20;;;;;;;7.68;6.38;;;;;;;14.51;75.01;98976.66;2623071;54;20026;-67
2021/09/17 06:54:50;;;;;;;6.75;5.65;;;;;;;14.63;74.23;98976.81;2622422;54;20540;-67
2021/09/17 06:57:20;;;;;;;6.93;5.70;;;;;;;14.70;73.77;98974.94;2622449;47;20038;-67
2021/09/17 06:59:49;;;;;;;6.45;5.05;;;;;;;14.80;73.78;98977.09;2623806;54;20046;-68
2021/09/17 07:02:19;;;;;;;7.60;5.35;;;;;;;14.89;73.88;98980.31;2623320;54;20035;-68
2021/09/17 07:04:49;;;;;;;9.63;7.38;;;;;;;14.97;73.32;98980.84;2625427;31;20526;-67
2021/09/17 07:07:21;;;;;;;10.73;6.25;;;;;;;14.96;73.62;98983.75;2623099;47;20022;-68
2021/09/17 07:09:51;;;;;;;10.70;5.82;;;;;;;15.04;73.33;98978.16;2622969;54;20034;-70
2021/09/17 07:12:21;;;;;;;7.50;5.80;;;;;;;15.04;72.82;98980.81;2623357;54;20026;-68
2021/09/17 07:14:50;;;;;;;9.48;6.30;;;;;;;15.00;73.53;98979.63;2621206;54;20030;-68
2021/09/17 07:17:31;;;;;;;8.23;5.50;;;;;;;15.13;73.56;98979.50;2623653;54;20085;-68
2021/09/17 07:20:15;;;;;;;10.43;6.80;;;;;;;15.25;72.96;98979.63;2624129;54;20034;-68
2021/09/17 07:22:48;;;;;;;7.13;6.07;;;;;;;15.35;73.01;98974.63;2624423;54;20552;-68
2021/09/17 07:25:19;;;;;;;7.80;6.82;;;;;;;15.46;72.56;98975.72;2622538;54;20019;-69
2021/09/17 07:27:49;;;;;;;7.55;6.85;;;;;;;15.47;71.97;98970.19;2623551;54;20045;-69
2021/09/17 07:30:19;;;;;;;6.88;6.15;;;;;;;15.39;72.26;98977.63;2621752;47;20042;-68
2021/09/17 07:32:50;;;;;;;5.88;5.18;;;;;;;15.49;72.57;98969.97;2623026;54;20047;-68
2021/09/17 07:35:22;;;;;;;6.93;6.30;;;;;;;15.54;72.43;98972.78;2622869;54;20033;-68
2021/09/17 07:37:55;;;;;;;9.25;6.15;;;;;;;15.71;71.95;98973.84;2622982;47;20037;-69
2021/09/17 07:40:25;;;;;;;8.00;6.43;;;;;;;15.85;71.44;98978.03;2622191;54;20050;-70
2021/09/17 07:42:54;;;;;;;9.02;6.25;;;;;;;15.91;71.66;98980.81;2623982;39;20717;-69
2021/09/17 07:45:24;;;;;;;11.25;6.72;;;;;;;15.96;71.33;98973.81;2622545;47;20027;-69
2021/09/17 07:47:55;;;;;;;8.75;7.15;;;;;;;15.99;71.14;98969.84;2622975;47;20038;-69
2021/09/17 07:50:25;;;;;;;11.57;9.98;;;;;;;16.13;70.39;98975.88;2621919;54;20097;-68
2021/09/17 07:52:58;;;;;;;7.15;6.45;;;;;;;16.04;70.73;98978.00;2622934;54;20046;-69
2021/09/17 07:55:32;;;;;;;6.57;5.80;;;;;;;16.11;71.09;98973.41;2623128;54;20045;-68
2021/09/17 07:58:02;;;;;;;10.15;6.05;;;;;;;16.24;70.66;98975.09;2623232;54;20038;-70
2021/09/17 08:00:32;;;;;;;7.28;6.57;;;;;;;16.38;69.96;98975.75;2623668;54;20042;-67
2021/09/17 08:03:04;;;;;;;7.60;6.57;;;;;;;16.44;70.35;98978.31;2623192;54;20030;-69
2021/09/17 08:05:34;;;;;;;7.97;6.40;;;;;;;16.57;69.64;98977.31;2623050;54;20026;-69
2021/09/17 08:08:07;;;;;;;6.85;6.18;;;;;;;16.71;69.08;98984.09;2622788;47;20039;-68
2021/09/17 08:10:36;;;;;;;8.27;6.33;;;;;;;16.67;69.02;98979.44;2621857;39;20441;-68
2021/09/17 08:13:08;;;;;;;7.68;6.97;;;;;;;16.73;68.80;98975.88;2621720;54;20577;-69
2021/09/17 08:15:38;;;;;;;7.50;6.07;;;;;;;16.81;68.81;98980.88;2621456;54;20046;-69
2021/09/17 08:18:07;;;;;;;9.93;7.07;;;;;;;16.82;68.41;98969.19;2620938;54;20244;-70
2021/09/17 08:20:40;;;;;;;6.72;6.03;;;;;;;16.86;68.82;98969.53;2621064;51;20553;-70
2021/09/17 08:23:12;;;;;;;8.65;6.63;;;;;;;16.96;68.09;98967.13;2621676;54;20026;-69
2021/09/17 08:25:41;;;;;;;9.05;6.47;;;;;;;17.00;67.97;98971.78;2621653;54;20026;-69
2021/09/17 08:28:11;;;;;;;8.88;5.82;;;;;;;17.07;67.87;98971.66;2621184;39;20425;-69
2021/09/17 08:30:41;;;;;;;8.02;6.00;;;;;;;17.16;68.12;98970.28;2621139;54;20041;-69
2021/09/17 08:33:11;;;;;;;7.82;6.18;;;;;;;17.28;67.25;98967.63;2622619;47;20066;-69
2021/09/17 08:35:42;;;;;;;6.43;5.82;;;;;;;17.43;66.97;98970.66;2623100;54;20062;-70
2021/09/17 08:38:15;;;;;;;10.02;6.55;;;;;;;17.55;66.42;98970.63;2622576;54;20572;-70
2021/09/17 08:40:45;;;;;;;;;;;;;;;17.60;66.34;98975.28;2622532;39;20422;-70
2021/09/17 08:43:16;;;;;;;8.02;6.10;;;;;;;17.68;66.02;98970.41;2621558;47;20399;-70
2021/09/17 08:45:46;;;;;;;7.85;7.07;;;;;;;17.75;65.09;98972.94;2622587;39;20435;-70
2021/09/17 08:48:17;;;;;;;8.10;7.28;;;;;;;17.74;64.69;98972.16;2622319;54;20038;-70
2021/09/17 08:50:51;;;;;;;8.88;7.88;;;;;;;17.71;64.39;98974.44;2624967;39;20445;-69
2021/09/17 08:53:24;;;;;;;8.00;6.75;;;;;;;17.69;64.80;98968.53;2623696;31;20541;-68
2021/09/17 08:55:55;;;;;;;7.65;6.03;;;;;;;17.66;65.02;98977.81;2620662;47;20022;-68
2021/09/17 08:58:24;;;;;;;7.93;6.53;;;;;;;17.71;64.97;98975.25;2622484;54;20041;-68
2021/09/17 09:00:56;;;;;;;9.18;7.63;;;;;;;17.94;64.50;98974.44;2622010;54;20034;-68
2021/09/17 09:03:31;;;;;;;7.93;6.47;;;;;;;18.04;64.09;98971.97;2622891;54;20086;-68
2021/09/17 09:06:13;;;;;;;9.75;7.93;;;;;;;18.18;63.94;98967.16;2621773;47;20053;-68
2021/09/17 09:08:45;;;;;;;10.43;7.80;;;;;;;18.20;63.70;98969.59;2622361;54;20045;-69
2021/09/17 09:11:17;;;;;;;11.33;8.27;;;;;;;18.25;63.59;98965.16;2623302;54;20039;-69
2021/09/17 09:14:04;;;;;;;8.43;7.00;;;;;;;18.31;62.79;98956.16;2623379;39;20677;-69
2021/09/17 09:16:34;;;;;;;12.35;9.48;;;;;;;18.43;62.62;98958.81;2623307;39;20460;-68
2021/09/17 09:19:25;;;;;;;9.52;8.52;;;;;;;18.60;62.30;98964.19;2623058;54;20046;-70
2021/09/17 09:22:10;;;;;;;8.70;7.05;;;;;;;18.61;61.53;98955.09;2622573;54;20033;-70
2021/09/17 09:24:44;;;;;;;9.90;7.75;;;;;;;18.72;61.70;98953.44;2621148;47;20034;-70
2021/09/17 09:27:16;;;;;;;10.80;7.68;;;;;;;18.87;61.16;98950.22;2621987;54;20154;-70
2021/09/17 09:29:48;;;;;;;10.60;6.57;;;;;;;19.02;60.85;98950.44;2621760;54;20077;-70
2021/09/17 09:32:29;;;;;;;9.88;8.85;;;;;;;19.12;59.16;98945.28;2621931;54;20031;-70
2021/09/17 09:35:00;;;;;;;11.07;9.15;;;;;;;19.07;57.52;98945.19;2621551;47;20041;-69
2021/09/17 09:37:32;;;;;;;10.10;7.97;;;;;;;19.08;57.65;98946.00;2622393;39;20294;-69
2021/09/17 09:40:08;;;;;;;10.95;8.13;;;;;;;19.24;57.27;98942.50;2622649;54;20545;-68
2021/09/17 09:42:39;;;;;;;9.43;8.10;;;;;;;19.44;57.47;98942.00;2623186;54;20030;-68
2021/09/17 09:45:18;;;;;;;9.77;7.85;;;;;;;19.66;55.75;98940.16;2622550;54;20049;-69
2021/09/17 09:47:52;;;;;;;10.35;6.40;;;;;;;19.82;55.93;98935.81;2621350;54;20031;-69
2021/09/17 09:50:24;;;;;;;9.65;6.85;;;;;;;20.03;55.18;98926.13;2620841;54;20027;-70
2021/09/17 09:52:55;;;;;;;9.98;6.45;;;;;;;20.17;54.46;98926.56;2622366;54;20054;-70
2021/09/17 09:55:27;;;;;;;9.63;6.53;;;;;;;20.18;54.06;98920.13;2620389;54;20041;-71
2021/09/17 09:57:58;;;;;;;8.45;7.65;;;;;;;20.24;53.57;98929.84;2620663;47;20041;-71
2021/09/17 10:00:28;;;;;;;8.45;7.53;;;;;;;20.18;52.83;98920.13;2620813;47;20027;-69
2021/09/17 10:02:58;;;;;;;9.52;7.50;;;;;;;20.17;53.29;98922.00;2621377;54;20045;-70
2021/09/17 10:05:31;;;;;;;9.07;8.07;;;;;;;20.20;52.39;98918.00;2620521;54;20035;-70
2021/09/17 10:08:00;;;;;;;11.30;8.18;;;;;;;20.07;53.02;98913.03;2621307;54;20034;-70
2021/09/17 10:10:33;;;;;;;11.32;9.57;;;;;;;20.01;53.40;98915.66;2620993;54;20041;-70
2021/09/17 10:13:03;;;;;;;15.93;14.27;;;;;;;20.15;52.73;98907.22;2620450;54;20030;-69
2021/09/17 10:15:35;;;;;;;9.02;8.00;;;;;;;20.11;52.97;98912.28;2620517;54;20026;-69
2021/09/17 10:18:10;;;;;;;9.13;6.43;;;;;;;20.17;53.36;98910.47;2620881;54;20041;-69
2021/09/17 10:20:40;;;;;;;9.43;7.65;;;;;;;20.32;53.06;98913.28;2621254;47;20038;-68
2021/09/17 10:23:28;;;;;;;8.95;7.72;;;;;;;20.43;51.49;98917.69;2621837;54;20561;-69
2021/09/17 10:26:07;;;;;;;11.15;9.93;;;;;;;20.40;52.56;98914.72;2621791;54;20038;-68
2021/09/17 10:28:57;;;;;;;7.82;6.45;;;;;;;20.39;52.52;98905.84;2621642;54;20031;-68
2021/09/17 10:31:26;;;;;;;8.93;7.32;;;;;;;20.40;52.85;98907.47;2623125;39;20456;-68
2021/09/17 10:33:56;;;;;;;7.93;6.18;;;;;;;20.52;53.12;98901.97;2622284;54;20041;-68
2021/09/17 10:36:43;;;;;;;8.63;6.07;;;;;;;20.65;52.96;98904.22;2621810;39;20430;-68
2021/09/17 10:39:16;;;;;;;7.18;6.45;;;;;;;20.70;52.60;98906.97;2621776;54;20534;-68
2021/09/17 10:42:19;;;;;;;7.50;6.40;;;;;;;20.70;52.29;98898.91;2622365;54;20019;-68
2021/09/17 10:45:19;;;;;;;10.10;7.10;;;;;;;20.86;52.04;98904.38;2622195;54;20106;-68
2021/09/17 10:48:01;;;;;;;8.18;7.05;;;;;;;20.81;51.94;98897.09;2620949;54;20045;-68
2021/09/17 10:50:43;;;;;;;6.57;5.97;;;;;;;20.78;51.93;98903.00;2620066;54;20041;-68
2021/09/17 10:53:14;;;;;;;8.10;6.85;;;;;;;20.91;51.72;98891.81;2619663;54;20073;-69
2021/09/17 10:56:04;;;;;;;7.93;5.32;;;;;;;20.87;51.92;98893.41;2619503;54;20035;-69
2021/09/17 10:58:37;;;;;;;8.60;6.45;;;;;;;20.93;51.77;98891.56;2620018;54;20023;-69
2021/09/17 11:01:09;;;;;;;11.20;9.55;;;;;;;21.12;49.81;98887.41;2620273;47;20027;-68
2021/09/17 11:04:01;;;;;;;10.48;8.05;;;;;;;21.09;49.28;98893.28;2621036;54;20561;-69
2021/09/17 11:06:31;;;;;;;8.85;6.68;;;;;;;21.07;49.70;98890.06;2620217;54;20026;-69
2021/09/17 11:09:02;;;;;;;8.32;6.05;;;;;;;21.10;49.95;98889.50;2620641;54;20055;-69
2021/09/17 11:11:38;;;;;;;5.90;5.40;;;;;;;21.12;50.10;98887.41;2621025;47;20026;-69
2021/09/17 11:14:16;;;;;;;8.50;6.32;;;;;;;21.14;50.07;98881.75;2620040;54;20085;-68
2021/09/17 11:16:51;;;;;;;6.60;5.78;;;;;;;21.09;49.62;98885.22;2618851;46;20050;-69
2021/09/17 11:19:21;;;;;;;6.03;5.43;;;;;;;21.24;49.96;98888.00;2619187;39;20432;-69
2021/09/17 11:21:53;;;;;;;6.00;5.00;;;;;;;20.93;49.66;98884.28;2619753;47;20030;-68
2021/09/17 11:24:25;;;;;;;7.05;5.28;;;;;;;21.08;49.77;98869.38;2621017;54;20538;-69
2021/09/17 11:26:57;;;;;;;9.40;5.47;;;;;;;21.20;50.12;98876.16;2620108;54;20038;-68
2021/09/17 11:32:05;;;;;;;7.13;4.93;;;;;;;21.31;50.01;98874.34;2617730;54;20035;-64
2021/09/17 11:34:36;;;;;;;6.75;4.85;;;;;;;21.36;49.08;98862.84;2618243;54;20030;-64
2021/09/17 13:20:33;;;;;;;5.03;3.55;;;;;;;21.02;49.52;98831.72;2612502;47;20034;-64
2021/09/17 13:25:58;;;;;;;4.55;3.60;;;;;;;20.95;49.17;98825.75;2616485;54;20054;-65
2021/09/17 13:28:28;;;;;;;4.38;3.97;;;;;;;20.91;48.89;98831.91;2619513;54;20038;-64
2021/09/17 13:30:58;;;;;;;4.05;3.33;;;;;;;20.85;49.47;98822.19;2619761;36;20045;-62
2021/09/17 13:33:27;;;;;;;5.32;3.03;;;;;;;20.89;49.34;98821.41;2618378;47;20042;-64
2021/09/17 13:36:02;;;;;;;3.70;3.33;;;;;;;21.06;48.65;98825.78;2618921;54;20038;-64
2021/09/17 13:38:32;;;;;;;6.60;3.15;;;;;;;21.05;48.16;98826.88;2620998;54;20038;-69
2021/09/17 13:41:01;;;;;;;8.05;4.03;;;;;;;21.07;47.90;98814.00;2622028;54;20073;-69